Latest Weather Observations for Latrobe Valley

IDV60801

Issued at 3:22 am EST Thursday 23 May 2019 (issued every 10 minutes, with the page automatically refreshed every 10 minutes)

About weather observations | Map of weather stations | Latest weather observations for VIC | Other Formats
Station Details ID: 085280 Name: LATROBE VALLEY AIRPORT Lat: -38.21 Lon: 146.47 Height: 55.7 m
Data from the previous 72 hours. | See also: Recent months at Latrobe Valley
Date/Time
EST
Temp
°C
App
Temp
°C
Dew
Point
°C
Rel
Hum
%
Delta-T
°C
Wind Press
QNH
hPa
Press
MSL
hPa
Rain since
9am
mm
Dir  Spd
km/h
Gust
km/h
Spd
kts
Gust
kts
23/03:00am 3.1 1.4 2.1 93 0.4 CALM 0 0 0 0 1027.4 1027.5 0.0
23/02:40am 3.0 1.3 1.8 92 0.5 CALM 0 0 0 0 1027.5 1027.6 0.0
23/02:32am 3.8 2.2 2.6 92 0.5 CALM 0 0 0 0 1027.5 1027.6 0.0
23/02:30am 4.0 2.5 2.8 92 0.5 CALM 0 0 0 0 1027.5 1027.6 0.0
23/02:00am 4.7 3.3 3.5 92 0.5 CALM 0 0 0 0 1027.7 1027.8 0.0
23/01:30am 5.1 3.8 3.9 92 0.5 CALM 0 0 0 0 1027.7 1027.8 0.0
23/01:00am 5.2 3.9 4.0 92 0.5 CALM 0 0 0 0 1027.8 1027.9 0.0
23/12:30am 5.7 4.5 4.5 92 0.5 CALM 0 0 0 0 1027.9 1028.0 0.0
23/12:00am 5.4 4.1 4.1 91 0.5 CALM 0 0 0 0 1027.9 1028.0 0.0
 
Date/Time
EST
Temp
°C
App
Temp
°C
Dew
Point
°C
Rel
Hum
%
Delta-T
°C
Wind Press
QNH
hPa
Press
MSL
hPa
Rain since
9am
mm
Dir  Spd
km/h
Gust
km/h
Spd
kts
Gust
kts
22/11:30pm 6.3 5.2 4.9 91 0.6 CALM 0 0 0 0 1027.9 1028.0 0.0
22/11:00pm 7.1 4.4 5.7 91 0.6 SW 9 11 5 6 1028.2 1028.3 0.0
22/10:30pm 6.4 4.1 4.9 90 0.7 WSW 6 7 3 4 1028.4 1028.5 0.0
22/10:00pm 6.6 5.4 4.8 88 0.8 CALM 0 2 0 1 1028.5 1028.6 0.0
22/09:30pm 7.0 5.9 5.0 87 0.9 CALM 0 0 0 0 1028.7 1028.8 0.0
22/09:00pm 8.6 7.4 6.4 86 1.0 SSE 2 6 1 3 1028.6 1028.7 0.0
22/08:30pm 8.5 6.5 6.3 86 1.0 SSW 6 7 3 4 1028.3 1028.4 0.0
22/08:00pm 9.4 8.6 6.7 83 1.3 CALM 0 0 0 0 1028.1 1028.2 0.0
22/07:30pm 9.6 8.7 6.0 78 1.7 CALM 0 6 0 3 1027.9 1028.0 0.0
22/07:00pm 11.2 9.2 7.3 77 1.9 NNE 7 9 4 5 1027.6 1027.7 0.0
22/06:30pm 12.4 11.8 7.3 71 2.5 CALM 0 0 0 0 1027.3 1027.4 0.0
22/06:00pm 13.1 12.6 7.8 70 2.6 CALM 0 0 0 0 1027.0 1027.1 0.0
22/05:30pm 15.3 13.1 7.8 61 3.8 SSW 9 13 5 7 1026.7 1026.8 0.0
22/05:00pm 16.2 14.1 8.2 59 4.0 WSW 9 9 5 5 1026.7 1026.8 0.0
22/04:30pm 18.2 15.8 8.5 53 5.0 WSW 11 13 6 7 1026.6 1026.7 0.0
22/04:00pm 19.3 16.4 8.3 49 5.7 WSW 13 20 7 11 1026.5 1026.6 0.0
22/03:30pm 19.7 16.7 7.8 46 6.1 WSW 13 17 7 9 1026.5 1026.6 0.0
22/03:00pm 19.8 15.6 7.5 45 6.3 WSW 19 26 10 14 1026.5 1026.6 0.0
22/02:30pm 19.9 15.6 7.9 46 6.2 W 20 26 11 14 1026.4 1026.5 0.0
22/02:00pm 19.9 15.6 7.9 46 6.2 W 20 28 11 15 1026.5 1026.6 0.0
22/01:30pm 19.9 15.4 8.6 48 5.9 W 22 30 12 16 1026.6 1026.7 0.0
22/01:00pm 19.7 16.5 9.9 53 5.2 WNW 17 22 9 12 1026.8 1026.9 0.0
22/12:30pm 18.9 16.5 9.9 56 4.8 W 13 20 7 11 1027.3 1027.4 0.0
22/12:00pm 18.4 18.2 10.3 59 4.3 WNW 2 7 1 4 1027.7 1027.8 0.0
22/11:30am 17.1 16.8 10.0 63 3.8 SSE 2 6 1 3 1028.2 1028.3 0.0
22/11:00am 15.7 15.6 9.4 66 3.2 CALM 0 6 0 3 1028.4 1028.5 0.0
22/10:30am 14.5 13.3 9.5 72 2.6 NNE 6 9 3 5 1028.6 1028.7 0.0
22/10:00am 13.4 13.5 11.5 88 1.0 ENE 2 7 1 4 1028.6 1028.7 0.0
22/09:30am 10.9 10.9 9.8 93 0.6 CALM 0 0 0 0 1028.5 1028.6 0.0
22/09:00am 7.9 7.2 7.0 94 0.4 CALM 0 0 0 0 1028.6 1028.7 0.0
22/08:30am 6.5 5.5 5.6 94 0.4 CALM 0 0 0 0 1028.3 1028.4 0.0
22/08:00am 4.8 3.5 3.9 94 0.4 CALM 0 2 0 1 1028.1 1028.2 0.0
22/07:34am 3.5 1.9 2.5 93 0.4 CALM 0 0 0 0 1027.8 1027.9 0.0
22/07:30am 3.7 2.1 2.7 93 0.4 CALM 0 0 0 0 1027.7 1027.8 0.0
22/07:18am 3.2 1.6 2.2 93 0.4 CALM 0 0 0 0 1027.6 1027.7 0.0
22/07:00am 3.3 1.7 2.3 93 0.4 CALM 0 0 0 0 1027.4 1027.5 0.0
22/06:30am 4.1 2.6 3.1 93 0.4 CALM 0 0 0 0 1027.2 1027.3 0.0
22/06:00am 4.0 2.5 3.0 93 0.4 CALM 0 0 0 0 1026.9 1027.0 0.0
22/05:30am 3.8 2.3 2.8 93 0.4 CALM 0 0 0 0 1026.7 1026.8 0.0
22/05:00am 5.0 3.7 4.0 93 0.4 CALM 0 0 0 0 1026.6 1026.7 0.0
22/04:30am 5.1 3.8 4.1 93 0.4 CALM 0 0 0 0 1026.4 1026.5 0.0
22/04:00am 4.2 2.4 3.2 93 0.4 ENE 2 7 1 4 1026.3 1026.4 0.0
22/03:30am 4.6 3.2 3.4 92 0.5 CALM 0 0 0 0 1026.2 1026.3 0.0
22/03:00am 5.2 3.9 4.2 93 0.4 CALM 0 0 0 0 1026.2 1026.3 0.0
22/02:30am 6.2 5.1 5.0 92 0.5 CALM 0 0 0 0 1025.9 1026.0 0.0
22/02:00am 5.8 3.8 4.6 92 0.5 NE 4 6 2 3 1025.8 1025.9 0.0
22/01:30am 5.4 4.1 4.1 91 0.6 CALM 0 0 0 0 1025.7 1025.8 0.0
22/01:00am 6.7 5.3 5.5 92 0.5 SSE 2 6 1 3 1025.8 1025.9 0.0
22/12:30am 6.5 5.4 5.1 91 0.6 CALM 0 0 0 0 1025.7 1025.8 0.0
22/12:00am 7.6 6.7 6.1 90 0.7 CALM 0 0 0 0 1025.6 1025.7 0.0
 
Date/Time
EST
Temp
°C
App
Temp
°C
Dew
Point
°C
Rel
Hum
%
Delta-T
°C
Wind Press
QNH
hPa
Press
MSL
hPa
Rain since
9am
mm
Dir  Spd
km/h
Gust
km/h
Spd
kts
Gust
kts
21/11:30pm 7.5 6.5 5.8 89 0.8 CALM 0 0 0 0 1025.5 1025.6 0.0
21/11:00pm 9.0 8.4 7.3 89 0.8 CALM 0 0 0 0 1025.4 1025.5 0.0
21/10:48pm 9.0 8.3 7.1 88 0.9 CALM 0 0 0 0 1025.4 1025.5 0.0
21/10:30pm 9.5 8.9 7.4 87 1.0 CALM 0 0 0 0 1025.2 1025.3 0.0
21/10:00pm 9.7 9.1 7.6 87 1.0 CALM 0 6 0 3 1025.2 1025.3 0.0
21/09:30pm 9.3 8.6 7.1 86 1.0 CALM 0 0 0 0 1025.2 1025.3 0.0
21/09:00pm 9.3 8.6 7.1 86 1.0 CALM 0 0 0 0 1024.9 1025.0 0.0
21/08:30pm 10.7 10.1 7.6 81 1.5 CALM 0 0 0 0 1024.6 1024.7 0.0
21/08:00pm 11.4 10.9 7.9 79 1.7 CALM 0 0 0 0 1024.2 1024.3 0.0
21/07:30pm 12.3 10.2 8.4 77 1.9 W 9 11 5 6 1024.0 1024.1 0.0
21/07:00pm 13.0 9.5 8.9 76 2.1 W 17 19 9 10 1023.7 1023.8 0.0
21/06:30pm 11.6 8.8 8.5 81 1.5 W 13 17 7 9 1023.8 1023.9 0.0
21/06:00pm 13.2 11.0 7.9 70 2.6 WSW 9 9 5 5 1023.4 1023.4 0.0
21/05:30pm 14.3 12.5 8.0 66 3.1 W 7 9 4 5 1022.9 1022.9 0.0
21/05:00pm 15.1 13.1 8.6 65 3.3 WSW 9 11 5 6 1023.0 1023.0 0.0
21/04:30pm 16.3 13.9 8.5 60 4.0 WSW 11 15 6 8 1022.7 1022.7 0.0
21/04:00pm 17.5 13.8 8.1 54 4.8 WNW 17 20 9 11 1022.5 1022.5 0.0
21/03:30pm 17.5 13.5 8.4 55 4.7 WNW 19 24 10 13 1022.3 1022.3 0.0
21/03:00pm 18.5 13.7 9.0 54 5.0 W 24 32 13 17 1022.0 1022.0 0.0
21/02:30pm 18.6 14.7 9.4 55 4.9 WSW 20 26 11 14 1021.9 1021.9 0.0
21/02:00pm 18.1 14.3 9.2 56 4.6 W 19 24 10 13 1021.8 1021.8 0.0
21/01:30pm 18.5 14.6 9.3 55 4.8 W 20 32 11 17 1021.7 1021.7 0.0
21/01:00pm 18.6 13.9 9.1 54 5.0 W 24 35 13 19 1021.9 1021.9 0.0
21/12:30pm 17.0 12.3 9.4 61 4.0 W 24 35 13 19 1022.5 1022.5 0.0
21/12:00pm 16.8 14.1 10.4 66 3.4 WNW 15 24 8 13 1022.7 1022.7 0.0
21/11:30am 15.7 13.3 10.2 70 2.9 WSW 13 15 7 8 1022.9 1022.9 0.0
21/11:00am 16.0 13.9 11.0 72 2.7 W 13 19 7 10 1023.2 1023.2 0.0
21/10:30am 14.4 12.6 10.8 79 1.9 W 11 15 6 8 1023.3 1023.3 0.0
21/10:00am 13.5 12.4 12.1 91 0.8 SW 9 11 5 6 1023.4 1023.4 0.0
21/09:30am 12.6 11.4 11.7 94 0.5 SW 9 11 5 6 1023.5 1023.5 0.0
21/09:00am 11.6 10.2 11.0 96 0.3 WSW 9 11 5 6 1023.3 1023.3 2.2
21/08:30am 9.6 8.1 9.0 96 0.3 WSW 7 9 4 5 1022.9 1022.9 2.2
21/08:00am 8.3 5.7 7.7 96 0.3 SW 11 13 6 7 1022.6 1022.6 2.2
21/07:30am 7.0 4.1 6.3 95 0.3 SW 11 13 6 7 1022.3 1022.3 2.2
21/07:00am 7.2 3.9 6.5 95 0.3 SW 13 15 7 8 1021.9 1021.9 2.2
21/06:54am 6.9 3.6 6.2 95 0.3 SW 13 15 7 8 1021.8 1021.8 2.2
21/06:30am 7.4 4.9 6.7 95 0.3 W 9 11 5 6 1021.4 1021.4 2.2
21/06:00am 7.5 5.1 6.9 96 0.3 NW 9 11 5 6 1021.1 1021.1 2.2
21/05:45am 6.0 3.6 5.3 95 0.3 NW 7 9 4 5 1021.1 1021.1 2.2
21/05:40am 5.4 2.9 4.7 95 0.3 WNW 7 9 4 5 1021.1 1021.1 2.2
21/05:30am 5.0 2.4 4.3 95 0.3 WNW 7 13 4 7 1021.2 1021.2 2.2
21/05:00am 5.8 3.0 5.1 95 0.3 NW 9 13 5 7 1020.7 1020.7 2.2
21/04:30am 5.6 3.1 4.9 95 0.3 W 7 9 4 5 1020.5 1020.5 2.2
21/04:13am 6.1 3.7 5.4 95 0.3 WSW 7 9 4 5 1020.4 1020.4 2.2
21/04:00am 6.3 4.0 5.6 95 0.3 SW 7 9 4 5 1020.3 1020.3 2.2
21/03:30am 6.6 4.3 5.9 95 0.3 SW 7 9 4 5 1020.2 1020.2 2.2
21/03:00am 7.5 6.8 6.8 95 0.3 CALM 0 7 0 4 1020.2 1020.2 2.2
21/02:50am 7.5 6.8 6.8 95 0.3 CALM 0 0 0 0 1020.1 1020.1 2.2
21/02:30am 6.5 5.5 5.8 95 0.3 CALM 0 0 0 0 1020.1 1020.1 2.2
21/02:27am 6.7 5.8 6.0 95 0.3 CALM 0 0 0 0 1020.2 1020.2 2.2
21/02:03am 6.3 5.3 5.6 95 0.3 CALM 0 0 0 0 1020.2 1020.2 2.2
21/02:00am 6.1 5.1 5.4 95 0.3 CALM 0 0 0 0 1020.1 1020.1 2.2
21/01:30am 7.3 6.1 6.6 95 0.3 S 2 7 1 4 1020.0 1020.0 2.0
21/01:00am 7.9 5.9 7.0 94 0.4 WSW 7 7 4 4 1020.0 1020.0 2.0
21/12:48am 8.7 7.1 7.8 94 0.4 SW 6 7 3 4 1020.0 1020.0 2.0
21/12:30am 8.7 6.9 7.9 95 0.4 SW 7 7 4 4 1020.1 1020.1 2.0
21/12:09am 8.1 6.1 7.2 94 0.4 SW 7 9 4 5 1020.2 1020.2 2.0
21/12:00am 7.9 6.1 7.0 94 0.4 SW 6 7 3 4 1020.2 1020.2 2.0
 
Date/Time
EST
Temp
°C
App
Temp
°C
Dew
Point
°C
Rel
Hum
%
Delta-T
°C
Wind Press
QNH
hPa
Press
MSL
hPa
Rain since
9am
mm
Dir  Spd
km/h
Gust
km/h
Spd
kts
Gust
kts
20/11:30pm 8.7 8.2 7.8 94 0.4 CALM 0 7 0 4 1020.1 1020.1 2.0
20/11:00pm 9.1 7.5 8.2 94 0.4 SE 6 9 3 5 1020.2 1020.2 2.0
20/10:30pm 9.8 9.1 8.7 93 0.5 SE 2 6 1 3 1020.3 1020.3 2.0
20/10:00pm 9.5 8.0 8.4 93 0.5 NE 6 11 3 6 1020.4 1020.4 2.0
20/09:56pm 9.6 8.5 8.5 93 0.5 ENE 4 9 2 5 1020.3 1020.3 2.0
20/09:30pm 10.9 9.6 10.0 94 0.5 NW 7 9 4 5 1020.1 1020.1 2.0
20/09:00pm 10.9 9.6 9.8 93 0.6 W 7 11 4 6 1020.0 1020.0 2.0
20/08:30pm 11.1 9.4 10.0 93 0.6 WSW 9 13 5 7 1019.7 1019.7 2.0
20/08:15pm 10.6 9.2 9.5 93 0.6 SW 7 9 4 5 1019.6 1019.6 2.0
20/08:02pm 10.8 9.4 9.7 93 0.6 SSW 7 9 4 5 1019.5 1019.5 2.0
20/08:00pm 10.8 9.4 9.7 93 0.6 SSW 7 9 4 5 1019.5 1019.5 2.0
20/07:51pm 11.8 10.3 10.7 93 0.6 SSW 9 11 5 6 1019.3 1019.3 2.0
20/07:30pm 10.9 10.9 9.8 93 0.6 CALM 0 0 0 0 1019.2 1019.2 2.0
20/07:07pm 11.1 10.4 9.9 92 0.6 SE 4 9 2 5 1019.1 1019.1 2.0
20/07:00pm 12.4 11.4 11.1 92 0.7 S 7 9 4 5 1019.1 1019.1 2.0
20/06:44pm 12.9 13.4 11.6 92 0.7 CALM 0 2 0 1 1019.0 1019.0 2.0
20/06:30pm 12.4 12.8 11.1 92 0.7 CALM 0 2 0 1 1019.0 1019.0 2.0
20/06:16pm 13.7 13.1 12.4 92 0.7 SSE 7 11 4 6 1018.8 1018.8 2.0
20/06:00pm 13.5 13.8 12.1 91 0.8 S 2 11 1 6 1018.4 1018.4 2.0
20/05:30pm 13.6 13.8 12.0 90 0.9 W 2 9 1 5 1018.3 1018.3 2.0
20/05:27pm 13.8 14.0 12.0 89 1.0 WNW 2 9 1 5 1018.3 1018.3 2.0
20/05:00pm 15.2 16.3 13.4 89 1.0 CALM 0 6 0 3 1018.2 1018.2 2.0
20/04:30pm 15.6 15.5 13.3 86 1.3 W 6 9 3 5 1017.9 1017.9 2.0
20/04:00pm 17.4 18.3 14.1 81 1.9 W 2 7 1 4 1017.8 1017.8 2.0
20/03:30pm 16.7 16.4 14.5 87 1.3 WSW 9 15 5 8 1018.1 1018.1 2.0
20/03:00pm 16.8 17.0 14.8 88 1.2 ESE 7 11 4 6 1018.1 1018.1 2.0
20/02:30pm 14.3 13.9 13.0 92 0.7 SSW 7 9 4 5 1018.6 1018.6 2.0
20/02:17pm 13.1 12.5 11.8 92 0.7 ENE 6 11 3 6 1018.4 1018.4 2.0
20/02:00pm 12.4 11.0 11.0 91 0.7 SSE 9 13 5 7 1018.8 1018.8 2.0
20/01:44pm 12.2 11.1 10.6 90 0.8 S 7 11 4 6 1019.5 1019.5 1.0
20/01:30pm 12.0 10.5 10.4 90 0.8 SW 9 17 5 9 1019.6 1019.6 0.6
20/01:00pm 12.1 10.9 10.3 89 0.9 NE 7 11 4 6 1019.8 1019.8 0.2
20/12:30pm 11.9 11.7 10.5 91 0.7 NNE 2 7 1 4 1020.3 1020.3 0.2
20/12:00pm 11.1 10.4 9.9 92 0.6 SW 4 7 2 4 1021.0 1021.0 0.2
20/11:44am 10.7 10.6 9.6 93 0.6 CALM 0 0 0 0 1021.2 1021.2 0.2
20/11:30am 10.3 9.8 9.2 93 0.5 NW 2 6 1 3 1021.3 1021.3 0.2
20/11:29am 10.3 9.8 9.2 93 0.5 NW 2 6 1 3 1021.4 1021.4 0.2
20/11:00am 9.3 8.5 8.2 93 0.5 NW 2 7 1 4 1021.7 1021.7 0.2
20/10:30am 9.2 7.6 8.1 93 0.5 ENE 6 9 3 5 1022.1 1022.1 0.2
20/10:00am 8.8 7.0 7.9 94 0.4 SW 7 11 4 6 1022.6 1022.6 0.2
20/09:30am 8.2 6.8 7.3 94 0.4 WSW 4 11 2 6 1022.7 1022.7 0.0
20/09:00am 7.4 6.2 6.5 94 0.4 WSW 2 7 1 4 1022.8 1022.8 0.2
20/08:30am 6.7 4.4 5.8 94 0.4 SW 7 9 4 5 1022.6 1022.6 0.2
20/08:00am 5.8 4.3 4.9 94 0.4 SW 2 6 1 3 1022.6 1022.6 0.2
20/07:30am 5.6 3.1 4.7 94 0.4 ENE 7 9 4 5 1022.6 1022.6 0.2
20/07:20am 4.7 2.2 3.8 94 0.4 S 6 9 3 5 1022.7 1022.7 0.2
20/07:00am 4.4 1.9 3.5 94 0.4 E 6 17 3 9 1022.8 1022.8 0.2
20/06:48am 4.1 2.6 3.2 94 0.4 CALM 0 0 0 0 1022.7 1022.7 0.2
20/06:46am 4.0 2.5 3.1 94 0.4 CALM 0 0 0 0 1022.6 1022.6 0.2
20/06:42am 4.0 2.5 3.1 94 0.4 CALM 0 0 0 0 1022.7 1022.7 0.2
20/06:30am 3.4 1.8 2.5 94 0.4 CALM 0 0 0 0 1022.6 1022.6 0.2
20/06:21am 3.3 0.9 2.4 94 0.4 WNW 4 7 2 4 1022.6 1022.6 0.2
20/06:19am 3.3 0.9 2.4 94 0.4 WNW 4 7 2 4 1022.7 1022.7 0.2
20/06:18am 3.3 0.9 2.3 93 0.4 WNW 4 7 2 4 1022.7 1022.7 0.2
20/06:17am 3.3 1.3 2.3 93 0.4 W 2 7 1 4 1022.7 1022.7 0.2
20/06:00am 3.5 1.9 2.6 94 0.4 CALM 0 0 0 0 1022.7 1022.7 0.2
20/05:45am 3.2 1.2 2.2 93 0.4 WNW 2 9 1 5 1022.9 1022.9 0.2
20/05:30am 3.4 1.0 2.4 93 0.4 E 4 9 2 5 1022.7 1022.7 0.2
20/05:00am 3.6 2.0 2.6 93 0.4 CALM 0 0 0 0 1022.9 1022.9 0.2
20/04:30am 3.1 1.4 2.1 93 0.4 CALM 0 0 0 0 1023.0 1023.0 0.2
20/04:00am 3.4 1.8 2.4 93 0.4 CALM 0 0 0 0 1023.3 1023.3 0.2
20/03:30am 4.0 2.5 3.0 93 0.4 CALM 0 0 0 0 1023.4 1023.4 0.2
20/03:25am 3.9 2.4 2.9 93 0.4 CALM 0 0 0 0 1023.5 1023.5 0.2

Other formats

Comma delimited format used in spreadsheet applications
http://www.bom.gov.au/fwo/IDV60801/IDV60801.94891.axf

JavaScript Object Notation format (JSON) in row-major order
http://www.bom.gov.au/fwo/IDV60801/IDV60801.94891.json

Data quality

Most of these data are generated automatically and are frequently updated. Quality checks on data are not normally performed. It is possible for incorrect values to appear. Refer to information at About Latest Weather Observations and please check the disclaimer before using these data.